Terminal Aerodrome Forecast
Issued by NWS

Home | Current Version | Previous Version | Text Only | Print | Product List | Glossary On
Versions: 1 2 3 4 5 6 7 8 9 10 11 12 13 14 15 16 17 18 19 20 21
000
FTUS44 KCRP 161400 AAA
TAFLRD
TAF AMD
KLRD 161425Z 1614/1712 VRB03KT P6SM SCT040
     FM161600 09006KT P6SM SCT025 BKN040
      TEMPO 1616/1619 BKN025 OVC035
     FM162000 10005KT P6SM VCTS BKN040CB
      TEMPO 1622/1702 VRB15G25KT 3SM TSRA BKN030CB
     FM170500 16005KT P6SM SCT040=

USA.gov is the U.S. government's official web portal to all federal, state and local government web resources and services.